Time;durP1;ratioP1;P1;durP2;ratioP2;P2;SDS_P1;SDS_P2;PMS_P1;PMS_P2;Temp;Humidity;BMP_temperature;BMP_pressure;BME280_temperature;BME280_humidity;BME280_pressure;Samples;Min_cycle;Max_cycle;Signal;HPM_P1;HPM_P2
2022/08/28 00:01:03;;;;;;;5.82;3.50;;;22.10;52.90;;;;;;7370094;19;20017;-80
2022/08/28 00:03:32;;;;;;;8.30;3.30;;;22.00;53.00;;;;;;7372386;19;20023;-80
2022/08/28 00:06:04;;;;;;;12.77;3.95;;;21.90;53.90;;;;;;7394007;19;20015;-79
2022/08/28 00:08:33;;;;;;;7.20;3.47;;;22.00;53.30;;;;;;7373184;19;20489;-81
2022/08/28 00:11:03;;;;;;;6.30;3.42;;;22.10;53.00;;;;;;7372257;19;20019;-81
2022/08/28 00:13:43;;;;;;;10.10;3.53;;;22.10;53.00;;;;;;7372902;19;20019;-87
2022/08/28 00:16:12;;;;;;;5.50;3.25;;;22.10;53.00;;;;;;7376710;19;20014;-86
2022/08/28 00:18:42;;;;;;;6.85;3.83;;;21.90;53.20;;;;;;7379645;19;20018;-88
2022/08/28 00:21:13;;;;;;;7.25;3.85;;;22.00;53.30;;;;;;7400311;19;20035;-88
2022/08/28 00:23:43;;;;;;;10.32;3.85;;;21.90;53.20;;;;;;7380560;19;20275;-87
2022/08/28 00:27:51;;;;;;;9.25;3.65;;;21.80;53.40;;;;;;7402996;19;20014;-87
2022/08/28 00:29:00;;;;;;;5.75;3.72;;;21.90;53.30;;;;;;7409730;19;20007;-87
2022/08/28 00:31:29;;;;;;;6.20;3.70;;;22.00;53.40;;;;;;7403780;19;19998;-87
2022/08/28 00:33:57;;;;;;;5.45;3.50;;;22.00;53.40;;;;;;7378875;19;20014;-88
2022/08/28 00:36:29;;;;;;;9.63;4.60;;;21.90;53.40;;;;;;7394210;19;20014;-87
2022/08/28 00:38:58;;;;;;;7.78;4.00;;;21.80;53.50;;;;;;7371217;19;20006;-87
2022/08/28 00:41:28;;;;;;;6.95;3.97;;;21.80;53.70;;;;;;7371649;19;20018;-88
2022/08/28 00:44:09;;;;;;;10.70;4.05;;;21.80;53.90;;;;;;7370556;19;20014;-88
2022/08/28 00:46:38;;;;;;;9.73;3.72;;;21.90;53.70;;;;;;7371837;19;20014;-88
2022/08/28 00:49:07;;;;;;;11.73;4.63;;;21.70;53.70;;;;;;7371867;19;20025;-88
2022/08/28 00:54:22;;;;;;;10.23;4.15;;;21.70;53.80;;;;;;7395976;19;20017;-88
2022/08/28 00:56:52;;;;;;;8.88;4.07;;;21.70;53.90;;;;;;7370758;19;20144;-88
2022/08/28 00:59:23;;;;;;;8.02;4.03;;;21.80;53.80;;;;;;7369735;19;20037;-88
2022/08/28 01:01:56;;;;;;;10.52;4.20;;;21.80;53.90;;;;;;7371474;19;20019;-88
2022/08/28 01:04:28;;;;;;;8.52;4.43;;;21.70;53.80;;;;;;7373753;19;20653;-89
2022/08/28 01:07:04;;;;;;;11.98;4.70;;;21.70;53.90;;;;;;7374532;19;20026;-88
2022/08/28 01:09:34;;;;;;;10.18;4.20;;;21.60;54.10;;;;;;7376074;19;20011;-88
2022/08/28 01:12:07;;;;;;;14.68;4.70;;;21.60;54.10;;;;;;7399856;19;20007;-89
2022/08/28 01:14:38;;;;;;;8.88;4.47;;;21.60;54.10;;;;;;7376847;19;20010;-88
2022/08/28 01:17:08;;;;;;;9.43;4.28;;;21.70;54.00;;;;;;7370653;19;20014;-88
2022/08/28 01:19:41;;;;;;;9.35;4.65;;;21.60;53.90;;;;;;7373709;19;20011;-88
2022/08/28 01:22:22;;;;;;;8.48;4.38;;;21.60;54.10;;;;;;7378456;19;20320;-88
2022/08/28 01:24:57;;;;;;;9.18;4.55;;;21.50;54.20;;;;;;7385955;19;20021;-88
2022/08/28 01:27:26;;;;;;;11.48;4.95;;;21.50;54.30;;;;;;7410999;19;20019;-88
2022/08/28 01:29:56;;;;;;;9.85;4.53;;;21.40;54.40;;;;;;7397521;19;20015;-88
2022/08/28 01:32:37;;;;;;;11.98;4.75;;;21.60;54.20;;;;;;7383653;19;20013;-88
2022/08/28 01:35:08;;;;;;;8.30;4.20;;;21.60;54.20;;;;;;7379423;19;20043;-88
2022/08/28 01:37:38;;;;;;;;;;;21.60;54.10;;;;;;7385496;19;20042;-89
2022/08/28 01:40:13;;;;;;;8.70;4.25;;;21.50;54.30;;;;;;7381073;19;20295;-88
2022/08/28 01:42:43;;;;;;;8.57;4.68;;;21.50;54.40;;;;;;7384066;19;20035;-89
2022/08/28 01:45:17;;;;;;;9.85;4.38;;;21.40;54.60;;;;;;7421655;19;20022;-89
2022/08/28 01:47:47;;;;;;;6.80;4.38;;;21.40;54.60;;;;;;7411860;19;20044;-89
2022/08/28 01:50:18;;;;;;;8.23;4.43;;;21.40;54.50;;;;;;7415612;19;20011;-89
2022/08/28 01:52:47;;;;;;;7.38;4.20;;;21.40;54.60;;;;;;7416667;19;20043;-89
2022/08/28 01:55:19;;;;;;;12.82;6.28;;;21.40;54.50;;;;;;7411105;19;20006;-89
2022/08/28 01:57:50;;;;;;;9.55;4.88;;;21.40;54.40;;;;;;7411962;19;20152;-90
2022/08/28 02:00:20;;;;;;;12.30;5.13;;;21.50;54.40;;;;;;7431479;19;20018;-89
2022/08/28 02:02:49;;;;;;;11.95;4.90;;;21.40;54.40;;;;;;7410813;19;20014;-88
2022/08/28 02:05:18;;;;;;;7.95;4.72;;;21.40;54.50;;;;;;7411216;19;20017;-88
2022/08/28 02:07:47;;;;;;;9.02;4.30;;;21.40;54.50;;;;;;7408664;19;20006;-88
2022/08/28 02:10:23;;;;;;;12.40;5.82;;;21.40;54.50;;;;;;7401922;19;20039;-88
2022/08/28 02:12:55;;;;;;;13.45;4.78;;;21.40;54.50;;;;;;7390399;19;20018;-89
2022/08/28 02:15:24;;;;;;;9.48;4.65;;;21.20;54.70;;;;;;7419621;19;20006;-89
2022/08/28 02:17:54;;;;;;;7.57;4.38;;;21.20;54.90;;;;;;7414258;19;20050;-88
2022/08/28 02:20:23;;;;;;;8.55;4.60;;;21.20;54.90;;;;;;7409587;19;20015;-88
2022/08/28 02:22:52;;;;;;;8.50;3.92;;;21.20;55.10;;;;;;7388905;19;20031;-89
2022/08/28 02:25:24;;;;;;;9.10;4.20;;;21.20;55.20;;;;;;7383601;19;20022;-87
2022/08/28 02:27:53;;;;;;;7.32;3.88;;;21.20;55.10;;;;;;7379399;19;20019;-87
2022/08/28 02:30:22;;;;;;;10.48;4.50;;;21.20;55.20;;;;;;7400351;19;20108;-87
2022/08/28 02:32:52;;;;;;;6.85;3.80;;;21.20;55.00;;;;;;7379144;19;20054;-87
2022/08/28 02:35:22;;;;;;;7.82;4.00;;;21.30;54.90;;;;;;7379411;19;20011;-86
2022/08/28 02:37:52;;;;;;;10.70;4.23;;;21.20;55.00;;;;;;7380188;19;20023;-87
2022/08/28 02:40:26;;;;;;;7.22;4.13;;;21.30;55.00;;;;;;7380963;19;20022;-87
2022/08/28 02:42:55;;;;;;;8.32;4.30;;;21.20;55.00;;;;;;7380470;19;20038;-87
2022/08/28 02:45:24;;;;;;;7.03;3.92;;;21.10;55.20;;;;;;7400057;19;20039;-87
2022/08/28 02:47:55;;;;;;;6.55;3.80;;;21.10;55.30;;;;;;7379850;19;20561;-87
2022/08/28 02:50:25;;;;;;;7.10;4.10;;;21.10;55.40;;;;;;7381432;19;20048;-86
2022/08/28 02:52:54;;;;;;;6.55;3.58;;;21.00;55.50;;;;;;7375227;19;20051;-85
2022/08/28 02:55:26;;;;;;;18.95;4.88;;;21.10;55.50;;;;;;7378190;19;20030;-87
2022/08/28 02:57:56;;;;;;;8.65;3.80;;;21.10;55.50;;;;;;7375101;19;20021;-88
2022/08/28 03:00:28;;;;;;;8.55;3.72;;;21.00;55.60;;;;;;7398705;19;20042;-87
2022/08/28 03:02:57;;;;;;;11.02;3.97;;;20.90;55.90;;;;;;7376471;19;20099;-86
2022/08/28 03:05:27;;;;;;;7.03;4.25;;;21.00;56.00;;;;;;7375414;19;20027;-86
2022/08/28 03:07:55;;;;;;;7.10;3.70;;;20.90;56.10;;;;;;7373462;19;20138;-86
2022/08/28 03:10:27;;;;;;;6.97;4.47;;;20.80;56.10;;;;;;7374790;19;20067;-87
2022/08/28 03:12:56;;;;;;;8.07;3.88;;;20.90;56.20;;;;;;7376019;19;20031;-87
2022/08/28 03:15:25;;;;;;;8.02;3.53;;;20.80;56.20;;;;;;7394554;19;20019;-87
2022/08/28 03:17:53;;;;;;;7.68;3.45;;;20.80;56.30;;;;;;7374042;19;20019;-87
2022/08/28 03:20:22;;;;;;;6.75;3.38;;;20.70;56.40;;;;;;7373400;19;20121;-86
2022/08/28 03:25:35;;;;;;;11.35;4.10;;;20.60;56.70;;;;;;7375481;19;20018;-87
2022/08/28 03:28:04;;;;;;;;;;;20.60;56.70;;;;;;7375874;19;20018;-87
2022/08/28 03:30:32;;;;;;;7.82;3.60;;;20.70;56.80;;;;;;7379389;19;19943;-86
2022/08/28 03:33:02;;;;;;;7.03;3.50;;;20.60;56.70;;;;;;7392926;19;20039;-86
2022/08/28 03:35:31;;;;;;;6.72;3.50;;;20.60;56.80;;;;;;7375130;19;20011;-87
2022/08/28 03:38:00;;;;;;;10.70;3.85;;;20.70;56.80;;;;;;7375530;19;20022;-87
2022/08/28 03:40:30;;;;;;;9.55;3.58;;;20.60;56.80;;;;;;7373982;19;20010;-87
2022/08/28 03:43:02;;;;;;;6.75;3.60;;;20.60;56.80;;;;;;7375799;19;20053;-87
2022/08/28 03:45:31;;;;;;;8.57;3.83;;;20.60;57.00;;;;;;7378781;19;20010;-87
2022/08/28 03:48:00;;;;;;;10.07;3.97;;;20.50;57.00;;;;;;7399929;19;20029;-88
2022/08/28 03:50:29;;;;;;;8.88;3.50;;;20.60;56.90;;;;;;7375815;19;20035;-88
2022/08/28 03:52:58;;;;;;;7.20;3.50;;;20.60;56.80;;;;;;7378008;19;20021;-87
2022/08/28 03:55:27;;;;;;;8.52;3.80;;;20.60;56.80;;;;;;7374800;19;20078;-86
2022/08/28 03:57:56;;;;;;;9.00;3.63;;;20.60;56.80;;;;;;7375390;19;20006;-87
2022/08/28 04:00:28;;;;;;;5.82;3.58;;;20.60;56.90;;;;;;7401021;19;20035;-87
2022/08/28 04:02:57;;;;;;;9.63;4.00;;;20.70;56.90;;;;;;7394620;19;20007;-87
2022/08/28 04:05:26;;;;;;;7.20;3.97;;;20.70;56.90;;;;;;7409489;19;20006;-86
2022/08/28 04:07:54;;;;;;;9.88;4.10;;;20.70;56.80;;;;;;7409071;19;20010;-86
2022/08/28 04:10:23;;;;;;;9.02;3.92;;;20.70;56.80;;;;;;7390901;19;20018;-86
2022/08/28 04:12:52;;;;;;;7.20;3.63;;;20.70;57.00;;;;;;7374424;19;20035;-86
2022/08/28 04:15:21;;;;;;;7.38;3.60;;;20.70;57.00;;;;;;7394726;19;20071;-86
2022/08/28 04:17:52;;;;;;;7.10;3.97;;;20.60;57.00;;;;;;7374351;19;20038;-85
2022/08/28 04:20:21;;;;;;;;;;;20.40;57.10;;;;;;7375530;19;20014;-86
2022/08/28 04:22:50;;;;;;;7.82;3.88;;;20.40;57.40;;;;;;7374888;19;19923;-87
2022/08/28 04:25:20;;;;;;;7.65;3.42;;;20.30;57.30;;;;;;7372915;19;20548;-87
2022/08/28 04:27:49;;;;;;;8.43;3.35;;;20.50;57.40;;;;;;7377887;19;20118;-86
2022/08/28 04:30:19;;;;;;;10.13;4.05;;;20.50;57.30;;;;;;7400290;19;20018;-87
2022/08/28 04:32:47;;;;;;;10.63;4.28;;;20.40;57.30;;;;;;7380349;19;20015;-88
2022/08/28 04:35:19;;;;;;;11.13;4.22;;;20.30;57.60;;;;;;7378917;19;20015;-88
2022/08/28 04:37:48;;;;;;;6.78;3.83;;;20.20;57.80;;;;;;7380122;19;20042;-88
2022/08/28 04:40:18;;;;;;;7.90;4.03;;;20.20;57.80;;;;;;7380446;19;20787;-88
2022/08/28 04:42:46;;;;;;;12.25;3.80;;;20.10;57.90;;;;;;7374874;19;20011;-87
2022/08/28 04:45:15;;;;;;;9.95;3.95;;;20.20;57.90;;;;;;7395393;19;20018;-87
2022/08/28 04:47:44;;;;;;;8.05;3.97;;;20.20;58.00;;;;;;7376576;19;20018;-86
2022/08/28 04:50:14;;;;;;;6.55;3.60;;;20.10;58.10;;;;;;7374156;19;20030;-87
2022/08/28 04:52:45;;;;;;;10.05;4.25;;;20.10;58.40;;;;;;7374644;19;20026;-86
2022/08/28 04:55:14;;;;;;;7.25;3.45;;;19.90;58.80;;;;;;7372678;19;20037;-86
2022/08/28 04:57:45;;;;;;;8.60;4.00;;;20.00;58.80;;;;;;7375720;19;20022;-87
2022/08/28 05:00:15;;;;;;;4.55;3.55;;;20.00;58.70;;;;;;7399241;19;20014;-87
2022/08/28 05:02:44;;;;;;;9.07;4.28;;;20.10;58.60;;;;;;7372269;19;20015;-89
2022/08/28 05:05:13;;;;;;;11.98;4.32;;;20.00;58.50;;;;;;7373566;19;20292;-87
2022/08/28 05:07:45;;;;;;;9.00;4.20;;;20.00;58.60;;;;;;7376680;19;20011;-87
2022/08/28 05:10:14;;;;;;;12.15;4.53;;;20.10;59.10;;;;;;7375097;19;20046;-87
2022/08/28 05:12:43;;;;;;;8.07;3.90;;;20.20;58.30;;;;;;7371630;19;20018;-88
2022/08/28 05:15:12;;;;;;;8.30;3.90;;;20.20;58.10;;;;;;7393015;19;20010;-88
2022/08/28 05:17:41;;;;;;;7.05;3.58;;;20.20;58.10;;;;;;7374401;19;20022;-86
2022/08/28 05:20:11;;;;;;;7.95;3.65;;;20.30;58.10;;;;;;7373879;19;20106;-86
2022/08/28 05:22:40;;;;;;;6.93;3.78;;;20.10;58.40;;;;;;7376528;19;20015;-86
2022/08/28 05:25:13;;;;;;;7.22;3.65;;;20.10;58.60;;;;;;7378429;19;20102;-86
2022/08/28 05:27:42;;;;;;;8.05;3.72;;;20.10;58.60;;;;;;7377849;19;20095;-87
2022/08/28 05:30:13;;;;;;;7.03;3.42;;;20.10;58.70;;;;;;7400484;19;20022;-87
2022/08/28 05:32:43;;;;;;;5.73;3.40;;;20.10;58.70;;;;;;7381114;19;20019;-87
2022/08/28 05:35:13;;;;;;;9.17;4.13;;;20.10;58.70;;;;;;7382505;19;20300;-86
2022/08/28 05:37:42;;;;;;;6.10;3.60;;;20.10;58.60;;;;;;7386580;19;20259;-88
2022/08/28 05:40:15;;;;;;;11.05;3.63;;;20.20;58.70;;;;;;7391449;19;20018;-88
2022/08/28 05:42:44;;;;;;;7.47;4.10;;;20.30;58.60;;;;;;7389350;19;20038;-88
2022/08/28 05:45:13;;;;;;;9.98;4.13;;;20.20;58.60;;;;;;7420126;19;20108;-88
2022/08/28 05:47:42;;;;;;;13.23;4.80;;;20.00;58.80;;;;;;7413592;19;20018;-88
2022/08/28 05:50:13;;;;;;;6.80;4.30;;;20.10;59.10;;;;;;7415046;19;20047;-87
2022/08/28 05:52:43;;;;;;;12.52;4.70;;;20.10;59.20;;;;;;7412790;19;20038;-88
2022/08/28 05:55:17;;;;;;;9.40;3.90;;;20.10;59.30;;;;;;7393892;19;20015;-88
2022/08/28 05:57:45;;;;;;;11.43;4.38;;;20.10;59.30;;;;;;7393449;19;20019;-89
2022/08/28 06:00:17;;;;;;;10.07;3.88;;;20.20;59.30;;;;;;7411296;19;20429;-88
2022/08/28 06:02:45;;;;;;;;;;;20.30;59.40;;;;;;7388285;19;20023;-88
2022/08/28 06:05:14;;;;;;;9.57;3.75;;;20.30;59.40;;;;;;7388971;19;20323;-89
2022/08/28 06:07:43;;;;;;;6.35;3.95;;;20.30;59.50;;;;;;7388514;19;20022;-89
2022/08/28 06:10:15;;;;;;;6.97;3.50;;;20.30;59.50;;;;;;7386599;19;20042;-88
2022/08/28 06:12:44;;;;;;;7.93;3.80;;;20.30;59.50;;;;;;7383986;19;20026;-88
2022/08/28 06:15:14;;;;;;;7.35;3.92;;;20.40;59.50;;;;;;7408814;19;20022;-89
2022/08/28 06:17:42;;;;;;;10.10;3.70;;;20.50;59.30;;;;;;7385567;19;20025;-86
2022/08/28 06:20:12;;;;;;;15.63;4.22;;;20.60;59.30;;;;;;7385550;19;20091;-87
2022/08/28 06:22:41;;;;;;;11.43;3.88;;;20.50;59.20;;;;;;7391086;19;20014;-88
2022/08/28 06:25:13;;;;;;;11.40;4.03;;;20.60;59.30;;;;;;7394010;19;20027;-89
2022/08/28 06:27:44;;;;;;;15.43;4.15;;;20.70;59.10;;;;;;7387745;19;20015;-87
2022/08/28 06:30:13;;;;;;;;;;;20.80;58.90;;;;;;7412004;19;20019;-88
2022/08/28 06:32:42;;;;;;;11.80;3.88;;;20.80;58.80;;;;;;7388288;19;19922;-87
2022/08/28 06:35:11;;;;;;;9.38;3.70;;;20.80;58.80;;;;;;7387159;19;20019;-87
2022/08/28 06:37:40;;;;;;;9.60;3.55;;;20.70;59.40;;;;;;7385779;19;20027;-87
2022/08/28 06:40:10;;;;;;;10.77;4.10;;;20.60;59.30;;;;;;7389017;19;20010;-87
2022/08/28 06:42:39;;;;;;;12.45;3.85;;;20.70;59.40;;;;;;7386689;19;20352;-88
2022/08/28 06:45:12;;;;;;;7.93;3.60;;;20.80;59.20;;;;;;7406527;19;20036;-86
2022/08/28 06:47:40;;;;;;;10.82;3.55;;;21.00;59.10;;;;;;7386967;19;20472;-88
2022/08/28 06:50:10;;;;;;;14.70;4.25;;;20.90;58.80;;;;;;7387998;19;20015;-88
2022/08/28 06:52:39;;;;;;;15.65;4.25;;;20.90;59.00;;;;;;7391086;19;20035;-88
2022/08/28 06:55:09;;;;;;;13.95;4.20;;;21.10;58.90;;;;;;7392135;19;20051;-89
2022/08/28 06:57:38;;;;;;;11.18;3.55;;;21.00;58.80;;;;;;7400916;19;20026;-89
2022/08/28 07:00:11;;;;;;;11.48;3.45;;;20.90;58.90;;;;;;7417870;19;20043;-88
2022/08/28 07:02:40;;;;;;;10.48;3.80;;;21.00;59.10;;;;;;7390847;19;20021;-89
2022/08/28 07:05:09;;;;;;;15.30;4.20;;;21.10;59.00;;;;;;7388430;19;20023;-88
2022/08/28 07:07:38;;;;;;;6.82;3.30;;;21.20;58.90;;;;;;7392634;19;20019;-86
2022/08/28 07:10:08;;;;;;;14.65;4.03;;;21.30;58.70;;;;;;7388154;19;20002;-86
2022/08/28 07:12:36;;;;;;;10.13;3.85;;;21.10;58.50;;;;;;7386141;19;20007;-86
2022/08/28 07:15:06;;;;;;;9.80;3.75;;;21.20;58.70;;;;;;7407177;19;20434;-88
2022/08/28 07:17:38;;;;;;;10.05;4.05;;;21.30;58.70;;;;;;7384716;19;20022;-88
2022/08/28 07:20:09;;;;;;;10.90;3.97;;;21.30;58.40;;;;;;7384226;19;20485;-88
2022/08/28 07:22:39;;;;;;;7.63;3.88;;;21.40;58.60;;;;;;7383124;19;20062;-87
2022/08/28 07:25:10;;;;;;;20.52;3.95;;;21.50;58.30;;;;;;7381475;19;20028;-87
2022/08/28 07:27:39;;;;;;;10.48;3.28;;;21.60;58.10;;;;;;7384738;19;20038;-89
2022/08/28 07:30:11;;;;;;;16.58;3.70;;;21.60;58.00;;;;;;7411774;19;20010;-88
2022/08/28 07:32:47;;;;;;;15.73;4.13;;;21.60;57.50;;;;;;7398006;19;20010;-88
2022/08/28 07:35:19;;;;;;;11.07;3.95;;;21.40;58.10;;;;;;7412646;19;20003;-88
2022/08/28 07:37:48;;;;;;;14.63;3.88;;;21.40;58.50;;;;;;7408240;19;20022;-88
2022/08/28 07:40:18;;;;;;;17.10;3.92;;;21.70;58.30;;;;;;7394261;19;20552;-88
2022/08/28 07:45:31;;;;;;;9.05;3.85;;;21.80;58.10;;;;;;7400993;19;20014;-88
2022/08/28 07:48:07;;;;;;;14.88;3.90;;;21.70;57.90;;;;;;7378883;19;20094;-88
2022/08/28 07:50:36;;;;;;;9.68;3.85;;;21.60;57.90;;;;;;7380108;19;20022;-88
2022/08/28 07:53:05;;;;;;;13.02;4.18;;;21.50;58.10;;;;;;7381064;19;20768;-89
2022/08/28 07:55:34;;;;;;;10.05;3.40;;;21.40;58.20;;;;;;7381875;19;20019;-89
2022/08/28 07:58:06;;;;;;;13.82;3.53;;;21.60;58.10;;;;;;7379164;19;20015;-88
2022/08/28 08:00:35;;;;;;;13.40;4.20;;;21.60;58.10;;;;;;7381621;19;20374;-88
2022/08/28 08:03:06;;;;;;;15.05;3.97;;;21.70;57.70;;;;;;7407300;19;20036;-88
2022/08/28 08:05:36;;;;;;;15.65;4.20;;;21.80;58.10;;;;;;7379404;19;20022;-88
2022/08/28 08:08:05;;;;;;;13.30;3.70;;;21.70;57.90;;;;;;7388116;19;20059;-88
2022/08/28 08:10:35;;;;;;;14.65;4.53;;;21.90;57.80;;;;;;7389491;19;20486;-88
2022/08/28 08:13:04;;;;;;;14.45;4.43;;;21.60;57.60;;;;;;7390895;19;20018;-88
2022/08/28 08:15:35;;;;;;;10.73;4.28;;;21.70;58.10;;;;;;7391476;19;20015;-88
2022/08/28 08:18:07;;;;;;;;;;;21.90;57.70;;;;;;7422584;19;20017;-87
2022/08/28 08:20:36;;;;;;;15.35;4.20;;;21.70;57.70;;;;;;7398023;19;19971;-88
2022/08/28 08:23:05;;;;;;;10.40;4.18;;;21.50;58.60;;;;;;7386455;19;20010;-88
2022/08/28 08:25:34;;;;;;;18.63;4.13;;;21.70;58.20;;;;;;7381678;19;20011;-88
2022/08/28 08:28:04;;;;;;;13.73;4.55;;;21.70;58.10;;;;;;7380123;19;20111;-88
2022/08/28 08:30:33;;;;;;;13.50;4.20;;;21.90;58.10;;;;;;7379741;19;20006;-88
2022/08/28 08:33:02;;;;;;;15.52;5.15;;;22.00;57.90;;;;;;7405188;19;20038;-88
2022/08/28 08:35:35;;;;;;;19.10;5.00;;;22.00;57.50;;;;;;7388222;19;20023;-88
2022/08/28 08:38:05;;;;;;;15.23;5.30;;;21.70;58.10;;;;;;7389109;19;20011;-86
2022/08/28 08:40:34;;;;;;;14.90;5.40;;;21.60;58.30;;;;;;7403190;19;20010;-87
2022/08/28 08:43:04;;;;;;;14.32;4.82;;;21.90;57.80;;;;;;7399563;19;20006;-86
2022/08/28 08:45:34;;;;;;;13.05;4.95;;;21.90;57.70;;;;;;7392412;19;20103;-86
2022/08/28 08:48:03;;;;;;;15.18;4.80;;;22.00;57.10;;;;;;7415096;19;20018;-86
2022/08/28 08:50:47;;;;;;;14.88;4.68;;;22.00;57.30;;;;;;7385559;19;20018;-87
2022/08/28 08:53:25;;;;;;;17.38;4.78;;;22.20;57.10;;;;;;7384170;19;20294;-87
2022/08/28 08:55:57;;;;;;;14.65;5.68;;;22.20;56.90;;;;;;7380733;19;20015;-87
2022/08/28 08:58:30;;;;;;;10.30;5.18;;;22.20;56.50;;;;;;7382142;19;20462;-86
2022/08/28 09:01:06;;;;;;;10.32;4.85;;;22.00;57.70;;;;;;7376690;19;20015;-86
2022/08/28 09:03:49;;;;;;;15.85;5.60;;;22.10;56.80;;;;;;7379183;19;20035;-86
2022/08/28 09:06:31;;;;;;;10.93;5.00;;;22.00;57.00;;;;;;7400279;19;20027;-85
2022/08/28 09:09:03;;;;;;;19.55;5.88;;;22.20;57.10;;;;;;7376597;19;20014;-88
2022/08/28 09:11:43;;;;;;;17.92;5.25;;;22.10;57.00;;;;;;7376600;19;20025;-87
2022/08/28 09:14:18;;;;;;;13.80;6.38;;;22.00;57.70;;;;;;7375189;19;20018;-88
2022/08/28 09:16:48;;;;;;;17.92;6.25;;;22.10;57.40;;;;;;7373312;19;20550;-81
2022/08/28 09:19:20;;;;;;;15.43;6.32;;;22.00;57.20;;;;;;7386012;19;20019;-80
2022/08/28 09:21:53;;;;;;;12.63;5.68;;;22.30;56.90;;;;;;7383450;19;20021;-81
2022/08/28 09:24:58;;;;;;;16.25;6.32;;;22.20;57.30;;;;;;7395125;19;20021;-83
2022/08/28 09:36:03;;;;;;;13.57;6.00;;;22.20;56.90;;;;;;7370705;19;20113;-83
2022/08/28 09:38:46;;;;;;;17.38;6.88;;;22.10;57.50;;;;;;7334218;19;20006;-81
2022/08/28 09:44:01;;;;;;;19.30;6.95;;;22.50;57.00;;;;;;7370331;19;20021;-81
2022/08/28 09:46:57;;;;;;;14.30;5.95;;;22.50;56.60;;;;;;7328260;19;20019;-83
2022/08/28 09:53:11;;;;;;;13.00;6.47;;;22.60;56.20;;;;;;7367325;19;20031;-81
2022/08/28 09:56:25;;;;;;;16.67;7.15;;;22.40;57.00;;;;;;7322753;19;20438;-81
2022/08/28 09:59:26;;;;;;;15.63;7.13;;;22.50;57.00;;;;;;7362685;19;20021;-82
2022/08/28 10:02:23;;;;;;;22.13;8.10;;;22.50;56.40;;;;;;7374310;19;20016;-83
2022/08/28 10:09:03;;;;;;;13.93;7.13;;;22.60;56.20;;;;;;7374701;19;20022;-85
2022/08/28 10:12:14;;;;;;;16.77;6.65;;;22.40;56.30;;;;;;7344871;19;20018;-86
2022/08/28 10:18:58;;;;;;;14.70;7.50;;;22.90;55.60;;;;;;7379898;19;20022;-83
2022/08/28 10:33:16;;;;;;;18.27;8.98;;;23.40;54.40;;;;;;7378359;19;20015;-84
2022/08/28 10:36:12;;;;;;;15.88;7.10;;;23.20;53.60;;;;;;7381107;19;20024;-89
2022/08/28 10:39:14;;;;;;;18.10;5.90;;;23.00;54.70;;;;;;7378365;19;20006;-88
2022/08/28 10:51:35;;;;;;;11.23;6.00;;;23.70;54.00;;;;;;7409284;19;20001;-89
2022/08/28 10:54:50;;;;;;;;;;;;;;;;;;;;;
2022/08/28 10:57:31;;;;;;;12.38;5.65;;;23.80;54.30;;;;;;7372885;19;20679;-83
2022/08/28 11:00:10;;;;;;;13.20;5.60;;;24.10;53.20;;;;;;7392070;19;20017;-86
2022/08/28 11:27:50;;;;;;;12.55;5.80;;;24.80;51.80;;;;;;7296215;19;20014;-89
2022/08/28 11:30:58;;;;;;;9.65;5.18;;;24.60;51.00;;;;;;7384492;19;20037;-87
2022/08/28 11:40:44;;;;;;;11.70;4.82;;;24.70;51.30;;;;;;7389397;19;20021;-88
2022/08/28 11:43:39;;;;;;;13.52;4.68;;;24.70;51.30;;;;;;7387763;19;20371;-86
2022/08/28 11:46:14;;;;;;;14.82;4.32;;;24.70;51.00;;;;;;7384319;19;20006;-86
2022/08/28 11:48:50;;;;;;;13.23;5.00;;;24.80;51.30;;;;;;7390139;19;20310;-87
2022/08/28 11:51:46;;;;;;;9.32;4.45;;;24.70;51.00;;;;;;7408332;19;20017;-87
2022/08/28 11:54:40;;;;;;;11.57;4.32;;;24.90;51.30;;;;;;7391482;19;20014;-86
2022/08/28 11:57:16;;;;;;;6.90;4.30;;;25.20;51.00;;;;;;7407166;19;20030;-87
2022/08/28 12:00:04;;;;;;;16.33;8.70;;;25.30;51.10;;;;;;7407839;19;20018;-87
2022/08/28 12:03:09;;;;;;;9.93;5.10;;;25.50;50.40;;;;;;7404014;19;20014;-87
2022/08/28 12:05:45;;;;;;;15.55;5.25;;;25.70;50.00;;;;;;7398921;19;20094;-87
2022/08/28 12:08:35;;;;;;;14.52;4.88;;;25.80;49.50;;;;;;7398804;19;20011;-87
2022/08/28 12:11:04;;;;;;;7.70;4.68;;;25.80;49.10;;;;;;7406400;19;20067;-87
2022/08/28 12:13:47;;;;;;;9.95;4.43;;;25.90;49.30;;;;;;7407999;19;20003;-87
2022/08/28 12:16:18;;;;;;;15.02;6.85;;;26.10;49.40;;;;;;7408762;19;20017;-86
2022/08/28 12:19:04;;;;;;;8.40;4.40;;;26.20;49.30;;;;;;7407830;19;20015;-86
2022/08/28 12:21:41;;;;;;;8.82;3.80;;;26.30;48.80;;;;;;7407296;19;20031;-86
2022/08/28 12:24:22;;;;;;;11.10;4.60;;;26.20;48.80;;;;;;7428779;19;20011;-86
2022/08/28 12:26:56;;;;;;;6.95;4.38;;;26.30;48.40;;;;;;7409148;19;20010;-86
2022/08/28 12:29:32;;;;;;;10.15;4.50;;;26.30;48.20;;;;;;7410536;19;20022;-85
2022/08/28 12:32:27;;;;;;;7.70;3.50;;;26.10;48.40;;;;;;7408630;19;20005;-86
2022/08/28 12:35:15;;;;;;;9.88;4.20;;;26.30;48.90;;;;;;7407058;19;20022;-85
2022/08/28 12:37:46;;;;;;;10.95;4.03;;;26.60;48.20;;;;;;7405276;19;20030;-87
2022/08/28 12:40:18;;;;;;;7.88;3.90;;;26.90;47.70;;;;;;7405294;19;20031;-86
2022/08/28 12:42:52;;;;;;;7.03;3.78;;;27.00;47.20;;;;;;7399040;19;20017;-86
2022/08/28 12:45:26;;;;;;;7.30;3.67;;;27.10;47.20;;;;;;7423636;19;20018;-85
2022/08/28 12:48:01;;;;;;;4.90;3.60;;;27.30;46.90;;;;;;7404611;19;20006;-86
2022/08/28 12:50:37;;;;;;;7.15;4.18;;;27.30;46.80;;;;;;7404338;19;20022;-86
2022/08/28 12:53:08;;;;;;;13.02;4.00;;;27.00;46.40;;;;;;7405340;19;19998;-86
2022/08/28 12:55:40;;;;;;;9.25;4.10;;;27.00;47.50;;;;;;7404124;19;20031;-86
2022/08/28 12:58:14;;;;;;;10.15;3.90;;;26.90;47.70;;;;;;7406485;19;20034;-87
2022/08/28 13:00:54;;;;;;;8.80;3.90;;;26.90;47.00;;;;;;7406212;19;20007;-86
2022/08/28 13:03:26;;;;;;;9.60;4.03;;;26.60;47.20;;;;;;7424499;19;20007;-87
2022/08/28 13:06:05;;;;;;;11.05;4.18;;;26.70;47.40;;;;;;7401823;19;20018;-88
2022/08/28 13:08:35;;;;;;;8.02;4.10;;;26.90;47.50;;;;;;7390460;19;20018;-87
2022/08/28 13:11:05;;;;;;;8.75;3.83;;;27.00;47.10;;;;;;7387908;19;20034;-87
2022/08/28 13:13:40;;;;;;;10.13;4.05;;;27.20;46.50;;;;;;7385104;19;20015;-87
2022/08/28 13:16:10;;;;;;;10.48;4.47;;;27.40;46.10;;;;;;7386874;19;20003;-86
2022/08/28 13:18:54;;;;;;;7.53;4.07;;;27.50;46.10;;;;;;7403570;19;20007;-86
2022/08/28 13:21:27;;;;;;;7.93;3.90;;;27.70;45.90;;;;;;7422574;19;20038;-86
2022/08/28 13:23:59;;;;;;;8.55;3.65;;;27.90;44.90;;;;;;7399773;19;20039;-86
2022/08/28 13:26:31;;;;;;;10.18;3.83;;;27.90;44.70;;;;;;7387171;19;20697;-87
2022/08/28 13:29:02;;;;;;;13.13;4.32;;;28.00;44.60;;;;;;7381534;19;20352;-85
2022/08/28 13:31:33;;;;;;;7.07;4.10;;;28.10;44.70;;;;;;7378421;19;20039;-85
2022/08/28 13:34:27;;;;;;;8.20;3.67;;;28.00;45.20;;;;;;7377122;19;20018;-85
2022/08/28 13:36:58;;;;;;;6.80;3.60;;;27.90;44.90;;;;;;7376507;19;20035;-86
2022/08/28 13:39:28;;;;;;;8.85;3.55;;;27.80;46.00;;;;;;7397405;19;20052;-86
2022/08/28 13:41:59;;;;;;;8.33;4.20;;;27.70;45.80;;;;;;7377484;19;20022;-85
2022/08/28 13:44:33;;;;;;;7.15;4.15;;;27.70;45.70;;;;;;7382329;19;20015;-86
2022/08/28 13:47:05;;;;;;;6.03;3.80;;;27.70;45.60;;;;;;7382064;19;20353;-86
2022/08/28 13:49:37;;;;;;;9.07;3.90;;;27.90;46.10;;;;;;7381997;19;20043;-86
2022/08/28 13:52:08;;;;;;;7.65;4.05;;;27.80;45.90;;;;;;7382125;19;20042;-86
2022/08/28 13:54:37;;;;;;;6.78;3.20;;;27.90;46.10;;;;;;7383019;19;20054;-85
2022/08/28 13:57:06;;;;;;;6.95;3.50;;;28.00;45.60;;;;;;7403794;19;20018;-86
2022/08/28 13:59:36;;;;;;;9.00;3.67;;;28.20;45.20;;;;;;7379738;19;20015;-86
2022/08/28 14:04:52;;;;;;;8.05;3.83;;;28.10;44.70;;;;;;7382865;19;20006;-86
2022/08/28 14:07:20;;;;;;;13.10;4.00;;;27.90;45.30;;;;;;7380143;19;20023;-86
2022/08/28 14:09:52;;;;;;;7.00;3.75;;;27.90;45.70;;;;;;7376728;19;20023;-85
2022/08/28 14:12:21;;;;;;;7.65;4.30;;;27.70;46.00;;;;;;7397565;19;20028;-85
2022/08/28 14:14:51;;;;;;;6.93;3.70;;;27.60;46.00;;;;;;7381208;19;20460;-86
2022/08/28 14:17:21;;;;;;;5.88;3.45;;;27.70;45.70;;;;;;7379280;19;20038;-85
2022/08/28 14:19:52;;;;;;;8.45;3.95;;;27.80;45.50;;;;;;7379248;19;20018;-86
2022/08/28 14:22:21;;;;;;;9.63;3.92;;;28.00;45.20;;;;;;7379064;19;20007;-86
2022/08/28 14:24:50;;;;;;;9.20;3.80;;;28.10;45.30;;;;;;7377567;19;20516;-85
2022/08/28 14:27:19;;;;;;;10.65;3.80;;;28.10;45.10;;;;;;7400005;19;20022;-85
2022/08/28 14:29:48;;;;;;;7.25;3.97;;;28.00;44.50;;;;;;7378841;19;20026;-86
2022/08/28 14:32:17;;;;;;;4.90;3.45;;;27.90;44.80;;;;;;7377649;19;20413;-86
2022/08/28 14:34:46;;;;;;;6.78;4.00;;;27.90;45.00;;;;;;7376128;19;20111;-86
2022/08/28 14:37:18;;;;;;;6.78;3.85;;;27.70;44.70;;;;;;7381068;19;20038;-86
2022/08/28 14:39:47;;;;;;;8.32;3.67;;;27.40;45.20;;;;;;7378574;19;20047;-86
2022/08/28 14:42:16;;;;;;;7.88;4.07;;;27.60;45.40;;;;;;7403048;19;20014;-78